Time;durP1;ratioP1;P1;durP2;ratioP2;P2;SDS_P1;SDS_P2;PMS_P1;PMS_P2;Temp;Humidity;BMP_temperature;BMP_pressure;BME280_temperature;BME280_humidity;BME280_pressure;Samples;Min_cycle;Max_cycle;Signal;HPM_P1;HPM_P2
2022/11/05 00:10:00;;;;;;;0.00;0.00;;;;;;;12.66;67.67;100626.66;7258586;19;2004498;-59
2022/11/05 00:17:53;;;;;;;0.00;0.00;;;;;;;12.67;67.43;100620.53;7360606;19;20040;-58
2022/11/05 00:20:19;;;;;;;0.00;0.00;;;;;;;12.68;67.80;100614.38;7359954;19;23573;-59
2022/11/05 00:25:29;;;;;;;0.00;0.00;;;;;;;12.70;67.16;100607.31;7361348;19;20031;-59
2022/11/05 00:28:00;;;;;;;0.03;0.03;;;;;;;12.74;67.16;100605.47;7360088;19;21615;-59
2022/11/05 00:30:25;;;;;;;0.00;0.00;;;;;;;12.72;66.85;100600.28;7360841;19;20010;-58
2022/11/05 00:32:51;;;;;;;0.00;0.00;;;;;;;12.73;67.10;100601.97;7362064;19;21540;-59
2022/11/05 00:35:19;;;;;;;0.00;0.00;;;;;;;12.75;67.22;100594.06;7367633;19;20018;-59
2022/11/05 00:37:45;;;;;;;0.00;0.00;;;;;;;12.76;67.12;100589.69;7364435;19;20035;-59
2022/11/05 00:40:12;;;;;;;0.10;0.10;;;;;;;12.78;66.77;100590.50;7364310;19;20014;-58
2022/11/05 00:45:43;;;;;;;0.05;0.05;;;;;;;12.80;67.19;100586.06;7255840;19;2004446;-59
2022/11/05 00:50:52;;;;;;;0.10;0.10;;;;;;;12.82;67.50;100579.84;7363251;19;20037;-59
2022/11/05 00:53:17;;;;;;;0.00;0.00;;;;;;;12.84;67.24;100569.31;7363831;19;21085;-58
2022/11/05 00:55:44;;;;;;;0.00;0.00;;;;;;;12.84;66.90;100561.47;7362255;19;20470;-58
2022/11/05 00:58:13;;;;;;;0.00;0.00;;;;;;;12.81;68.07;100551.06;7363969;19;20026;-59
2022/11/05 01:00:40;;;;;;;0.00;0.00;;;;;;;12.84;68.15;100564.09;7363944;19;20010;-58
2022/11/05 01:03:11;;;;;;;0.10;0.10;;;;;;;12.81;68.50;100566.78;7362206;19;20041;-59
2022/11/05 01:05:45;;;;;;;0.08;0.08;;;;;;;12.79;68.74;100566.00;7358628;19;20033;-59
2022/11/05 01:08:12;;;;;;;0.10;0.10;;;;;;;12.69;68.64;100563.69;7356183;19;20088;-59
2022/11/05 01:10:46;;;;;;;0.00;0.00;;;;;;;12.71;68.78;100561.84;7361546;19;20043;-58
2022/11/05 01:13:12;;;;;;;0.00;0.00;;;;;;;12.66;69.08;100566.41;7363706;19;20030;-58
2022/11/05 01:15:39;;;;;;;0.00;0.00;;;;;;;12.60;70.00;100553.50;7366105;19;21595;-58
2022/11/05 01:18:04;;;;;;;0.00;0.00;;;;;;;12.54;69.73;100543.25;7365328;19;20010;-58
2022/11/05 01:20:31;;;;;;;0.10;0.10;;;;;;;12.50;70.56;100546.88;7365175;19;21236;-58
2022/11/05 01:22:57;;;;;;;0.00;0.00;;;;;;;12.45;70.41;100548.78;7362619;19;20002;-59
2022/11/05 01:25:22;;;;;;;0.00;0.00;;;;;;;12.35;70.99;100537.75;7366978;19;20027;-59
2022/11/05 01:27:48;;;;;;;0.00;0.00;;;;;;;12.31;70.92;100537.88;7362138;19;20721;-59
2022/11/05 01:30:14;;;;;;;0.10;0.10;;;;;;;12.22;71.46;100531.22;7365273;19;20050;-59
2022/11/05 01:32:39;;;;;;;0.00;0.00;;;;;;;12.25;71.83;100540.72;7364506;19;20007;-59
2022/11/05 01:35:07;;;;;;;0.10;0.10;;;;;;;12.23;71.96;100543.41;7366292;19;21509;-59
2022/11/05 01:37:34;;;;;;;0.00;0.00;;;;;;;12.19;71.23;100542.63;7364289;19;20043;-59
2022/11/05 01:39:59;;;;;;;0.00;0.00;;;;;;;12.20;72.31;100538.25;7363396;19;20035;-59
2022/11/05 01:42:26;;;;;;;0.00;0.00;;;;;;;12.17;71.72;100538.34;7364267;19;20014;-59
2022/11/05 01:45:00;;;;;;;0.10;0.10;;;;;;;12.18;72.09;100530.44;7364221;19;20017;-57
2022/11/05 01:47:49;;;;;;;0.10;0.10;;;;;;;12.20;71.02;100530.38;7363828;19;20026;-59
2022/11/05 01:50:39;;;;;;;0.10;0.10;;;;;;;12.19;70.72;100532.16;7365577;19;20012;-58
2022/11/05 01:53:10;;;;;;;0.00;0.00;;;;;;;12.16;72.53;100515.69;7362096;19;20011;-59
2022/11/05 01:55:42;;;;;;;0.10;0.10;;;;;;;12.16;72.38;100516.53;7366140;19;20457;-59
2022/11/05 01:58:11;;;;;;;0.10;0.10;;;;;;;12.13;72.42;100506.19;7361202;19;20015;-60
2022/11/05 02:00:38;;;;;;;0.00;0.00;;;;;;;12.10;73.01;100501.03;7365867;19;20010;-59
2022/11/05 02:03:04;;;;;;;0.03;0.03;;;;;;;12.11;72.75;100501.88;7361185;19;20010;-59
2022/11/05 02:05:30;;;;;;;0.00;0.00;;;;;;;12.12;72.57;100503.63;7366111;19;20014;-58
2022/11/05 02:07:55;;;;;;;0.00;0.00;;;;;;;12.12;73.02;100499.25;7365049;19;20014;-59
2022/11/05 02:10:21;;;;;;;0.00;0.00;;;;;;;12.12;72.95;100494.00;7363995;19;20002;-59
2022/11/05 02:12:47;;;;;;;0.00;0.00;;;;;;;12.13;73.35;100487.84;7358699;19;20347;-60
2022/11/05 02:15:16;;;;;;;0.00;0.00;;;;;;;12.14;72.87;100492.19;7364697;19;20003;-60
2022/11/05 02:17:53;;;;;;;0.00;0.00;;;;;;;12.13;73.02;100487.84;7358988;19;20018;-58
2022/11/05 02:20:22;;;;;;;;;;;;;;;12.19;70.54;100489.41;7365301;19;20361;-58
2022/11/05 02:22:59;;;;;;;0.00;0.00;;;;;;;12.17;72.01;100476.38;7360778;19;19933;-59
2022/11/05 02:26:03;;;;;;;0.00;0.00;;;;;;;12.18;70.61;100472.00;7365837;19;20037;-58
2022/11/05 02:29:05;;;;;;;0.00;0.00;;;;;;;12.15;71.83;100467.72;7259976;19;2004607;-60
2022/11/05 02:31:59;;;;;;;0.00;0.00;;;;;;;12.12;72.22;100462.59;7259753;19;2005969;-60
2022/11/05 02:34:39;;;;;;;0.00;0.00;;;;;;;12.11;72.38;100455.63;7263259;19;2004491;-59
2022/11/05 02:37:10;;;;;;;0.00;0.00;;;;;;;12.08;72.86;100450.50;7363771;19;20018;-58
2022/11/05 02:39:54;;;;;;;0.00;0.00;;;;;;;12.10;71.50;100448.69;7361890;19;20010;-59
2022/11/05 02:42:38;;;;;;;0.00;0.00;;;;;;;12.09;72.45;100439.13;7360557;19;20033;-59
2022/11/05 02:45:24;;;;;;;0.00;0.00;;;;;;;12.09;72.67;100433.88;7364740;19;20088;-59
2022/11/05 02:47:58;;;;;;;0.05;0.05;;;;;;;12.07;73.77;100433.09;7361344;19;20031;-59
2022/11/05 02:50:34;;;;;;;0.10;0.10;;;;;;;12.05;73.19;100419.19;7363602;19;20006;-60
2022/11/05 02:53:14;;;;;;;0.10;0.10;;;;;;;12.06;73.14;100415.66;7360195;19;20014;-60
2022/11/05 02:55:51;;;;;;;0.00;0.00;;;;;;;12.09;71.71;100420.81;7360950;19;20010;-59
2022/11/05 02:58:17;;;;;;;0.00;0.00;;;;;;;12.06;72.58;100410.41;7353374;19;20010;-60
2022/11/05 03:00:50;;;;;;;0.00;0.00;;;;;;;12.05;72.65;100398.25;7365153;19;20033;-59
2022/11/05 03:03:25;;;;;;;0.10;0.10;;;;;;;12.08;72.54;100392.94;7360060;19;20020;-58
2022/11/05 03:06:06;;;;;;;0.10;0.10;;;;;;;12.04;72.40;100380.84;7362721;19;20023;-60
2022/11/05 03:09:03;;;;;;;0.00;0.00;;;;;;;12.07;72.55;100380.75;7364752;19;20013;-59
2022/11/05 03:11:34;;;;;;;0.10;0.10;;;;;;;12.07;72.46;100374.66;7262311;19;2004688;-59
2022/11/05 03:14:23;;;;;;;0.00;0.00;;;;;;;12.06;72.12;100365.09;7362329;19;20023;-60
2022/11/05 03:17:03;;;;;;;0.00;0.00;;;;;;;12.06;71.43;100360.69;7365155;19;20015;-59
2022/11/05 03:19:55;;;;;;;0.00;0.00;;;;;;;12.05;72.25;100351.16;7362165;19;20006;-59
2022/11/05 03:22:25;;;;;;;0.00;0.00;;;;;;;12.04;72.58;100344.19;7261262;19;2004211;-60
2022/11/05 03:24:56;;;;;;;0.00;0.00;;;;;;;12.04;72.52;100341.59;7362709;19;20468;-58
2022/11/05 03:27:31;;;;;;;0.00;0.00;;;;;;;12.04;72.33;100325.88;7365332;19;20002;-59
2022/11/05 03:30:04;;;;;;;0.00;0.00;;;;;;;11.94;72.35;100300.94;7362182;19;20014;-60
2022/11/05 03:32:32;;;;;;;0.00;0.00;;;;;;;12.03;72.56;100313.72;7362121;19;20037;-60
2022/11/05 03:35:04;;;;;;;0.00;0.00;;;;;;;11.92;72.57;100282.69;7362970;19;20006;-59
2022/11/05 03:37:32;;;;;;;0.00;0.00;;;;;;;12.02;72.38;100304.16;7364508;19;20006;-60
2022/11/05 03:40:00;;;;;;;0.08;0.08;;;;;;;12.05;72.88;100288.34;7362362;19;20666;-60
2022/11/05 03:42:30;;;;;;;0.00;0.00;;;;;;;12.06;72.31;100290.03;7365762;19;20105;-58
2022/11/05 03:44:59;;;;;;;0.10;0.10;;;;;;;12.04;73.13;100284.00;7364782;19;20002;-59
2022/11/05 03:47:33;;;;;;;0.00;0.00;;;;;;;12.05;72.96;100283.09;7362897;19;20006;-58
2022/11/05 03:50:20;;;;;;;0.10;0.10;;;;;;;12.05;72.57;100271.78;7364042;19;20012;-59
2022/11/05 03:52:53;;;;;;;0.00;0.00;;;;;;;11.98;73.15;100258.06;7362608;19;20098;-59
2022/11/05 03:55:26;;;;;;;0.00;0.00;;;;;;;12.01;73.67;100259.69;7363506;19;20007;-60
2022/11/05 03:57:54;;;;;;;0.00;0.00;;;;;;;11.99;73.72;100251.91;7362739;19;20030;-59
2022/11/05 04:00:21;;;;;;;0.10;0.10;;;;;;;11.93;74.15;100241.69;7359471;19;20489;-59
2022/11/05 04:02:46;;;;;;;0.00;0.00;;;;;;;11.90;74.17;100237.38;7361323;19;20638;-58
2022/11/05 04:05:12;;;;;;;0.10;0.10;;;;;;;11.92;74.53;100243.44;7349538;19;20022;-61
2022/11/05 04:13:23;;;;;;;0.00;0.00;;;;;;;11.90;74.90;100241.78;7361077;19;20932;-60
2022/11/05 04:18:35;;;;;;;0.10;0.10;;;;;;;11.89;75.18;100220.00;7357561;19;20013;-60
2022/11/05 04:24:07;;;;;;;0.08;0.08;;;;;;;11.79;74.82;100194.19;7356903;19;20038;-60
2022/11/05 04:26:38;;;;;;;0.10;0.10;;;;;;;11.92;75.03;100198.97;7361218;19;20014;-60
2022/11/05 04:31:48;;;;;;;0.00;0.00;;;;;;;11.93;74.41;100168.41;7360520;19;20017;-60
2022/11/05 04:34:15;;;;;;;0.00;0.00;;;;;;;11.89;73.75;100151.13;7360182;19;23965;-60
2022/11/05 04:36:40;;;;;;;0.10;0.10;;;;;;;11.92;74.25;100145.78;7361183;19;20380;-60
2022/11/05 04:39:06;;;;;;;0.00;0.00;;;;;;;11.94;74.34;100143.94;7361276;19;26924;-59
2022/11/05 04:41:31;;;;;;;0.10;0.10;;;;;;;11.93;74.53;100134.41;7358537;19;20030;-60
2022/11/05 04:43:57;;;;;;;0.00;0.00;;;;;;;11.93;74.86;100129.16;7362618;19;20013;-59
2022/11/05 04:46:22;;;;;;;0.00;0.00;;;;;;;11.94;74.94;100138.72;7358065;19;20517;-60
2022/11/05 04:48:47;;;;;;;0.00;0.00;;;;;;;11.95;74.45;100135.19;7360389;19;20010;-60
2022/11/05 04:51:13;;;;;;;0.10;0.10;;;;;;;11.96;74.59;100142.13;7357664;19;20011;-60
2022/11/05 04:53:38;;;;;;;0.00;0.00;;;;;;;11.97;75.12;100130.75;7360740;19;20003;-59
2022/11/05 04:56:22;;;;;;;0.00;0.00;;;;;;;11.99;74.16;100121.06;7360396;19;20007;-61
2022/11/05 04:58:47;;;;;;;0.00;0.00;;;;;;;12.00;75.07;100116.69;7359862;19;20028;-60
2022/11/05 05:01:18;;;;;;;0.00;0.00;;;;;;;12.03;74.63;100114.81;7358506;19;20002;-60
2022/11/05 05:03:46;;;;;;;0.00;0.00;;;;;;;12.04;74.48;100113.06;7360295;19;20014;-60
2022/11/05 05:06:11;;;;;;;0.00;0.00;;;;;;;12.03;74.41;100104.34;7359476;19;20360;-60
2022/11/05 05:08:37;;;;;;;0.05;0.05;;;;;;;12.03;74.72;100096.50;7359972;19;20006;-60
2022/11/05 05:11:05;;;;;;;0.00;0.00;;;;;;;12.05;74.41;100105.13;7359052;19;20115;-60
2022/11/05 05:13:30;;;;;;;0.00;0.00;;;;;;;12.06;74.60;100088.53;7361023;19;20033;-60
2022/11/05 05:15:55;;;;;;;0.00;0.00;;;;;;;12.06;74.86;100080.66;7356022;19;20493;-60
2022/11/05 05:18:21;;;;;;;0.00;0.00;;;;;;;12.00;74.85;100070.44;7361024;19;20012;-59
2022/11/05 05:23:30;;;;;;;0.00;0.00;;;;;;;12.05;74.29;100060.66;7364238;19;20039;-60
2022/11/05 05:25:59;;;;;;;0.00;0.00;;;;;;;12.09;74.51;100049.16;7365505;19;21287;-61
2022/11/05 05:28:26;;;;;;;0.00;0.00;;;;;;;12.13;74.68;100055.13;7365924;19;20007;-60
2022/11/05 05:30:51;;;;;;;0.00;0.00;;;;;;;12.13;75.15;100050.75;7364441;19;20637;-59
2022/11/05 05:33:17;;;;;;;0.00;0.00;;;;;;;12.14;74.97;100041.97;7364628;19;20006;-60
2022/11/05 05:35:42;;;;;;;0.00;0.00;;;;;;;12.16;75.03;100044.53;7367140;19;20501;-60
2022/11/05 05:38:07;;;;;;;0.10;0.10;;;;;;;12.17;75.26;100036.63;7365622;19;20018;-59
2022/11/05 05:40:33;;;;;;;0.00;0.00;;;;;;;12.19;75.17;100034.78;7364578;19;20026;-60
2022/11/05 05:42:58;;;;;;;0.00;0.00;;;;;;;12.09;75.66;100012.50;7364473;19;20007;-60
2022/11/05 05:45:24;;;;;;;0.05;0.05;;;;;;;12.24;75.41;100023.28;7364204;19;20030;-60
2022/11/05 05:47:49;;;;;;;0.00;0.00;;;;;;;12.25;75.21;100022.38;7364015;19;20003;-60
2022/11/05 05:50:14;;;;;;;0.00;0.00;;;;;;;12.28;75.55;100028.34;7364450;19;20010;-60
2022/11/05 05:52:40;;;;;;;0.00;0.00;;;;;;;12.29;75.21;100021.34;7364670;19;20007;-59
2022/11/05 05:55:05;;;;;;;0.00;0.00;;;;;;;12.31;75.66;100015.09;7365009;19;20034;-60
2022/11/05 05:57:31;;;;;;;0.00;0.00;;;;;;;12.35;75.37;100018.47;7364234;19;20016;-60
2022/11/05 05:59:56;;;;;;;0.00;0.00;;;;;;;12.34;75.47;100006.28;7363074;19;20006;-61
2022/11/05 06:02:21;;;;;;;0.00;0.00;;;;;;;12.37;75.49;100001.78;7364382;19;20007;-60
2022/11/05 06:04:47;;;;;;;0.03;0.03;;;;;;;12.39;75.32;100001.72;7365557;19;20086;-60
2022/11/05 06:07:12;;;;;;;0.08;0.08;;;;;;;12.41;74.79;99987.63;7365164;19;20157;-60
2022/11/05 06:09:38;;;;;;;0.00;0.00;;;;;;;12.46;74.87;100003.16;7362195;19;20053;-60
2022/11/05 06:12:03;;;;;;;0.00;0.00;;;;;;;12.48;74.92;99993.50;7364527;19;20588;-60
2022/11/05 06:14:29;;;;;;;0.00;0.00;;;;;;;12.54;74.78;99993.22;7362984;19;20006;-61
2022/11/05 06:16:54;;;;;;;0.00;0.00;;;;;;;12.58;74.71;99994.81;7364811;19;20113;-60
2022/11/05 06:19:20;;;;;;;0.00;0.00;;;;;;;12.64;74.35;99988.44;7362270;19;20010;-60
2022/11/05 06:21:45;;;;;;;0.03;0.03;;;;;;;12.70;74.47;99983.78;7363130;19;20014;-60
2022/11/05 06:24:10;;;;;;;0.00;0.00;;;;;;;12.77;74.70;99978.28;7363032;19;20482;-60
2022/11/05 06:26:41;;;;;;;0.00;0.00;;;;;;;12.85;73.82;99986.69;7363842;19;20050;-59
2022/11/05 06:29:07;;;;;;;0.00;0.00;;;;;;;12.89;74.10;99975.16;7364692;19;20728;-59
2022/11/05 06:31:32;;;;;;;0.10;0.10;;;;;;;12.95;74.20;99967.00;7363877;19;20143;-59
2022/11/05 06:33:58;;;;;;;0.10;0.10;;;;;;;13.01;74.08;99956.25;7362740;19;20010;-60
2022/11/05 06:36:23;;;;;;;0.10;0.10;;;;;;;13.07;73.98;99939.41;7365153;19;21609;-59
2022/11/05 06:38:49;;;;;;;0.00;0.00;;;;;;;13.11;74.04;99941.81;7363096;19;20355;-59
2022/11/05 06:41:14;;;;;;;0.00;0.00;;;;;;;13.10;74.29;99924.38;7362202;19;20579;-60
2022/11/05 06:43:40;;;;;;;0.00;0.00;;;;;;;13.20;73.82;99935.31;7362429;19;20010;-60
2022/11/05 06:46:06;;;;;;;0.00;0.00;;;;;;;13.15;74.02;99921.56;7363963;19;20017;-60
2022/11/05 06:48:32;;;;;;;0.00;0.00;;;;;;;13.27;73.82;99922.78;7362336;19;20010;-60
2022/11/05 06:50:57;;;;;;;0.00;0.00;;;;;;;13.30;74.29;99928.75;7362327;19;20145;-59
2022/11/05 06:53:23;;;;;;;0.08;0.08;;;;;;;13.33;74.14;99935.63;7363261;19;20020;-60
2022/11/05 06:55:48;;;;;;;0.00;0.00;;;;;;;13.36;73.76;99932.84;7361401;19;21089;-59
2022/11/05 06:58:14;;;;;;;0.00;0.00;;;;;;;13.37;73.76;99926.69;7354891;19;20006;-60
2022/11/05 07:00:40;;;;;;;0.00;0.00;;;;;;;13.36;73.84;99930.25;7364130;19;20389;-60
2022/11/05 07:03:07;;;;;;;0.00;0.00;;;;;;;13.43;73.69;99937.75;7361793;19;20130;-60
2022/11/05 07:05:35;;;;;;;0.00;0.00;;;;;;;13.39;73.88;99904.72;7363861;19;19998;-59
2022/11/05 07:08:01;;;;;;;0.00;0.00;;;;;;;13.48;73.95;99911.28;7364532;19;20006;-59
2022/11/05 07:10:26;;;;;;;0.00;0.00;;;;;;;13.36;73.51;99883.03;7362712;19;21058;-59
2022/11/05 07:12:51;;;;;;;0.00;0.00;;;;;;;13.50;74.11;99909.47;7362617;19;20026;-59
2022/11/05 07:15:17;;;;;;;0.00;0.00;;;;;;;13.52;74.09;99909.38;7363333;19;20434;-60
2022/11/05 07:17:42;;;;;;;0.00;0.00;;;;;;;13.54;73.69;99908.41;7363621;19;20010;-59
2022/11/05 07:20:09;;;;;;;0.00;0.00;;;;;;;13.57;73.62;99903.00;7362856;19;20014;-59
2022/11/05 07:22:35;;;;;;;0.00;0.00;;;;;;;13.57;73.17;99897.75;7363744;19;20681;-59
2022/11/05 07:25:00;;;;;;;0.00;0.00;;;;;;;13.57;73.90;99892.50;7360625;19;20007;-59
2022/11/05 07:27:26;;;;;;;0.00;0.00;;;;;;;13.56;73.53;99885.56;7364668;19;20010;-59
2022/11/05 07:29:51;;;;;;;0.00;0.00;;;;;;;13.60;73.69;99905.47;7361029;19;20006;-60
2022/11/05 07:32:16;;;;;;;0.00;0.00;;;;;;;13.62;74.08;99916.75;7362189;19;20094;-60
2022/11/05 07:34:42;;;;;;;0.00;0.00;;;;;;;13.64;74.10;99917.53;7361761;19;20364;-60
2022/11/05 07:37:07;;;;;;;0.10;0.10;;;;;;;13.69;73.13;99917.31;7363337;19;20362;-59
2022/11/05 07:39:33;;;;;;;0.00;0.00;;;;;;;13.70;73.25;99912.00;7365361;19;20037;-60
2022/11/05 07:41:58;;;;;;;0.00;0.00;;;;;;;13.74;73.46;99896.97;7359410;19;20115;-59
2022/11/05 07:44:23;;;;;;;0.10;0.10;;;;;;;13.59;73.80;99874.94;7362837;19;20645;-59
2022/11/05 07:46:49;;;;;;;0.00;0.00;;;;;;;13.79;73.11;99908.06;7363929;19;20011;-59
2022/11/05 07:49:15;;;;;;;0.00;0.00;;;;;;;13.82;73.94;99888.69;7362645;19;20010;-59
2022/11/05 07:51:41;;;;;;;0.00;0.00;;;;;;;13.84;73.82;99885.09;7362221;19;20007;-59
2022/11/05 07:54:06;;;;;;;0.00;0.00;;;;;;;13.86;73.83;99871.88;7363261;19;20055;-59
2022/11/05 07:56:32;;;;;;;0.00;0.00;;;;;;;13.85;73.97;99864.94;7362561;19;20085;-59
2022/11/05 07:58:57;;;;;;;0.00;0.00;;;;;;;13.90;73.61;99882.16;7362676;19;20039;-59
2022/11/05 08:01:23;;;;;;;0.00;0.00;;;;;;;13.82;73.50;99851.94;7360771;19;20011;-60
2022/11/05 08:03:48;;;;;;;0.05;0.05;;;;;;;13.94;73.50;99869.72;7363526;19;20875;-60
2022/11/05 08:06:14;;;;;;;0.00;0.00;;;;;;;13.98;73.02;99881.75;7360485;19;20010;-59
2022/11/05 08:08:39;;;;;;;0.10;0.10;;;;;;;13.93;73.83;99857.50;7363390;19;20007;-60
2022/11/05 08:11:06;;;;;;;0.00;0.00;;;;;;;14.00;73.77;99879.91;7361626;19;20015;-60
2022/11/05 08:13:33;;;;;;;0.10;0.10;;;;;;;14.03;73.33;99880.59;7364765;19;20086;-58
2022/11/05 08:15:58;;;;;;;0.00;0.00;;;;;;;14.05;73.44;99877.91;7360619;19;20030;-60
2022/11/05 08:18:30;;;;;;;0.00;0.00;;;;;;;14.08;73.69;99875.13;7363527;19;20557;-60
2022/11/05 08:21:00;;;;;;;0.00;0.00;;;;;;;14.11;73.67;99872.34;7358963;19;20014;-60
2022/11/05 08:23:27;;;;;;;0.08;0.08;;;;;;;14.13;73.77;99867.84;7362095;19;20484;-60
2022/11/05 08:25:53;;;;;;;0.00;0.00;;;;;;;14.15;73.75;99873.91;7359341;19;20026;-59
2022/11/05 08:28:20;;;;;;;0.00;0.00;;;;;;;14.17;74.21;99861.53;7361097;19;20023;-59
2022/11/05 08:30:55;;;;;;;0.10;0.10;;;;;;;14.24;73.25;99862.06;7358628;19;20063;-59
2022/11/05 08:33:22;;;;;;;0.00;0.00;;;;;;;14.20;73.60;99850.88;7350795;19;20042;-60
2022/11/05 08:35:48;;;;;;;0.10;0.10;;;;;;;14.30;73.30;99860.91;7358146;19;20034;-59
2022/11/05 08:38:16;;;;;;;0.00;0.00;;;;;;;14.31;73.74;99858.22;7357671;19;20014;-60
2022/11/05 08:40:43;;;;;;;0.00;0.00;;;;;;;14.35;74.02;99853.66;7360701;19;20006;-60
2022/11/05 08:43:11;;;;;;;0.08;0.08;;;;;;;14.39;73.77;99860.41;7359838;19;20030;-59
2022/11/05 08:45:37;;;;;;;0.03;0.03;;;;;;;14.41;73.52;99864.69;7360913;19;20077;-59
2022/11/05 08:48:11;;;;;;;0.03;0.03;;;;;;;14.47;73.78;99863.50;7357199;19;20002;-59
2022/11/05 08:50:37;;;;;;;0.00;0.00;;;;;;;14.46;74.21;99861.81;7358936;19;20023;-60
2022/11/05 08:53:04;;;;;;;0.00;0.00;;;;;;;14.41;74.06;99843.66;7357979;19;20050;-60
2022/11/05 08:55:30;;;;;;;0.10;0.10;;;;;;;14.52;73.82;99867.63;7364303;19;20011;-60
2022/11/05 08:58:03;;;;;;;0.05;0.05;;;;;;;14.57;73.64;99870.03;7356436;19;20015;-60
2022/11/05 09:00:31;;;;;;;0.00;0.00;;;;;;;14.60;74.32;99872.50;7360704;19;20018;-60
2022/11/05 09:03:01;;;;;;;0.00;0.00;;;;;;;14.64;74.18;99876.63;7354251;19;20017;-59
2022/11/05 09:05:27;;;;;;;0.03;0.03;;;;;;;14.63;74.22;99877.56;7365700;19;20099;-59
2022/11/05 09:07:53;;;;;;;0.10;0.10;;;;;;;14.66;73.90;99882.69;7364990;19;20082;-60
2022/11/05 09:10:18;;;;;;;0.00;0.00;;;;;;;14.68;74.03;99875.56;7364198;19;20473;-60
2022/11/05 09:12:44;;;;;;;0.00;0.00;;;;;;;14.74;73.82;99877.00;7362185;19;20013;-59
2022/11/05 09:15:09;;;;;;;0.10;0.10;;;;;;;14.76;73.80;99881.25;7360471;19;20045;-59
2022/11/05 09:17:35;;;;;;;0.10;0.10;;;;;;;14.78;74.00;99894.31;7362524;19;20098;-59
2022/11/05 09:20:02;;;;;;;0.00;0.00;;;;;;;14.82;73.54;99895.00;7362765;19;20022;-60
2022/11/05 09:22:28;;;;;;;0.10;0.10;;;;;;;14.85;73.87;99894.81;7362173;19;20011;-60
2022/11/05 09:24:53;;;;;;;0.10;0.10;;;;;;;14.87;73.97;99899.09;7359795;19;20370;-59
2022/11/05 09:27:18;;;;;;;0.00;0.00;;;;;;;14.84;73.84;99899.25;7364583;19;20011;-59
2022/11/05 09:29:44;;;;;;;0.00;0.00;;;;;;;14.89;73.74;99909.50;7360501;19;20057;-60
2022/11/05 09:32:09;;;;;;;0.10;0.10;;;;;;;14.89;74.08;99912.13;7360837;19;20726;-60
2022/11/05 09:34:35;;;;;;;0.00;0.00;;;;;;;14.86;74.01;99901.81;7361623;19;20034;-59
2022/11/05 09:37:01;;;;;;;0.00;0.00;;;;;;;14.89;73.77;99904.25;7361377;19;20562;-59
2022/11/05 09:39:26;;;;;;;0.00;0.00;;;;;;;14.90;73.87;99898.06;7361397;19;20010;-59
2022/11/05 09:42:01;;;;;;;0.10;0.10;;;;;;;14.92;73.65;99897.06;7363793;19;20618;-59
2022/11/05 09:44:39;;;;;;;0.10;0.10;;;;;;;14.90;74.03;99888.41;7362223;19;20115;-59
2022/11/05 09:47:13;;;;;;;0.10;0.10;;;;;;;14.90;73.32;99896.31;7363072;19;20014;-59
2022/11/05 09:49:43;;;;;;;0.05;0.05;;;;;;;14.85;74.28;99879.94;7362463;19;20007;-59
2022/11/05 09:52:15;;;;;;;0.00;0.00;;;;;;;14.87;73.54;99911.38;7361811;19;20019;-60
2022/11/05 09:54:41;;;;;;;0.00;0.00;;;;;;;14.83;74.06;99904.59;7362123;19;20529;-60
2022/11/05 09:57:14;;;;;;;0.00;0.00;;;;;;;14.82;74.16;99916.03;7364246;19;20077;-59
2022/11/05 09:59:47;;;;;;;0.00;0.00;;;;;;;14.79;74.17;99912.63;7365011;19;20047;-59
2022/11/05 10:02:17;;;;;;;0.00;0.00;;;;;;;14.75;74.46;99916.38;7362986;19;20020;-60
2022/11/05 10:04:45;;;;;;;0.00;0.00;;;;;;;14.72;74.47;99916.50;7363792;19;20569;-59
2022/11/05 10:07:15;;;;;;;0.00;0.00;;;;;;;14.72;74.13;99916.50;7364711;19;20018;-59
2022/11/05 10:09:46;;;;;;;0.00;0.00;;;;;;;14.57;74.06;99896.28;7353531;19;20021;-60
2022/11/05 10:12:45;;;;;;;0.00;0.00;;;;;;;14.70;74.06;99922.75;7362831;19;20032;-59
2022/11/05 10:15:19;;;;;;;0.00;0.00;;;;;;;14.70;74.64;99928.91;7259129;19;2004689;-59
2022/11/05 10:17:58;;;;;;;0.00;0.00;;;;;;;14.74;74.34;99926.94;7362378;19;20013;-60
2022/11/05 10:20:37;;;;;;;0.10;0.10;;;;;;;14.79;74.14;99928.38;7361708;19;20464;-60
2022/11/05 10:23:14;;;;;;;0.05;0.05;;;;;;;14.82;74.41;99919.50;7353823;19;20010;-59
2022/11/05 10:26:02;;;;;;;0.00;0.00;;;;;;;14.99;74.71;99929.13;7364443;19;20021;-59
2022/11/05 10:28:30;;;;;;;0.00;0.00;;;;;;;15.07;75.32;99929.56;7366862;19;20018;-60
2022/11/05 10:31:22;;;;;;;0.10;0.10;;;;;;;15.24;74.69;99934.75;7363154;19;20509;-60
2022/11/05 10:33:52;;;;;;;0.10;0.10;;;;;;;15.30;74.83;99934.44;7358550;19;20010;-60
2022/11/05 10:36:32;;;;;;;0.05;0.05;;;;;;;15.41;74.06;99935.63;7365267;19;20033;-60
2022/11/05 10:39:18;;;;;;;0.00;0.00;;;;;;;15.47;74.02;99930.03;7363472;19;20029;-60
2022/11/05 10:42:02;;;;;;;0.00;0.00;;;;;;;15.46;73.59;99938.84;7353068;19;20015;-60
2022/11/05 10:44:57;;;;;;;0.00;0.00;;;;;;;15.53;73.16;99940.22;7363711;19;20027;-60
2022/11/05 10:48:11;;;;;;;0.00;0.00;;;;;;;15.53;73.42;99945.50;7265384;19;2004707;-60
2022/11/05 10:50:38;;;;;;;0.00;0.00;;;;;;;15.46;73.32;99946.75;7259769;19;2004381;-60
2022/11/05 10:53:14;;;;;;;0.10;0.10;;;;;;;15.32;73.62;99908.91;7365819;19;20013;-58
2022/11/05 10:55:46;;;;;;;0.00;0.00;;;;;;;15.53;74.23;99929.69;7366264;19;20033;-59
2022/11/05 10:58:14;;;;;;;0.00;0.00;;;;;;;15.64;74.61;99932.63;7364224;19;20030;-59
2022/11/05 11:00:42;;;;;;;0.00;0.00;;;;;;;15.77;74.08;99933.63;7365442;19;20010;-58
2022/11/05 11:03:45;;;;;;;0.00;0.00;;;;;;;15.97;74.04;99934.28;7364248;19;20082;-59
2022/11/05 11:06:23;;;;;;;0.00;0.00;;;;;;;16.09;73.19;99928.31;7262359;19;2004293;-59
2022/11/05 11:08:50;;;;;;;0.10;0.10;;;;;;;16.10;72.99;99927.38;7364486;19;20074;-59
2022/11/05 11:11:27;;;;;;;0.00;0.00;;;;;;;16.23;73.12;99936.25;7364534;19;20052;-59
2022/11/05 11:13:56;;;;;;;0.10;0.10;;;;;;;16.26;72.90;99951.03;7364194;19;20484;-60
2022/11/05 11:16:24;;;;;;;0.00;0.00;;;;;;;16.25;73.04;99944.91;7364212;19;20037;-58
2022/11/05 11:19:00;;;;;;;0.10;0.10;;;;;;;16.33;72.85;99932.16;7364884;19;20082;-59
2022/11/05 11:21:27;;;;;;;0.00;0.00;;;;;;;16.26;72.86;99929.94;7365007;19;20033;-59
2022/11/05 11:24:01;;;;;;;0.10;0.10;;;;;;;16.42;72.29;99940.44;7364754;19;20014;-60
2022/11/05 11:26:31;;;;;;;0.00;0.00;;;;;;;16.40;72.36;99943.16;7365539;19;20023;-59
2022/11/05 11:29:24;;;;;;;0.00;0.00;;;;;;;16.43;72.32;99948.28;7366218;19;20013;-59
2022/11/05 11:31:54;;;;;;;0.10;0.10;;;;;;;16.42;71.97;99950.97;7262562;19;2004505;-60
2022/11/05 11:34:33;;;;;;;0.10;0.10;;;;;;;16.41;71.32;99949.28;7365385;19;20010;-59
2022/11/05 11:37:08;;;;;;;0.00;0.00;;;;;;;16.35;71.63;99951.34;7359883;19;20039;-60
2022/11/05 11:39:34;;;;;;;0.10;0.10;;;;;;;16.17;72.16;99941.91;7365288;19;20847;-59
2022/11/05 11:42:08;;;;;;;0.10;0.10;;;;;;;16.37;72.58;99969.69;7364487;19;20006;-59
2022/11/05 11:44:40;;;;;;;0.05;0.05;;;;;;;16.52;72.45;99975.84;7363315;19;20006;-60
2022/11/05 11:47:13;;;;;;;0.00;0.00;;;;;;;16.72;72.64;99965.00;7364160;19;20473;-59
2022/11/05 11:50:12;;;;;;;0.10;0.10;;;;;;;16.99;72.54;99972.22;7365785;19;20427;-59
2022/11/05 11:52:37;;;;;;;0.00;0.00;;;;;;;17.19;71.36;99969.19;7256565;19;2004574;-59
2022/11/05 11:55:20;;;;;;;0.08;0.08;;;;;;;17.53;71.83;99965.28;7364872;19;20033;-59
2022/11/05 11:57:52;;;;;;;0.10;0.10;;;;;;;17.68;70.71;99970.53;7364944;19;20003;-60
2022/11/05 12:00:19;;;;;;;0.00;0.00;;;;;;;17.72;69.68;99951.75;7363448;19;20049;-59
2022/11/05 12:02:45;;;;;;;;;;;;;;;18.05;70.62;99972.56;7365628;19;22459;-59
2022/11/05 12:06:08;;;;;;;0.10;0.10;;;;;;;18.05;68.96;99969.06;7359236;19;19933;-59
2022/11/05 12:08:44;;;;;;;0.00;0.00;;;;;;;17.95;68.52;99975.91;7157163;19;2004575;-60
2022/11/05 12:11:33;;;;;;;0.10;0.10;;;;;;;17.96;67.98;99959.09;7362348;19;20038;-59
2022/11/05 12:14:03;;;;;;;0.10;0.10;;;;;;;18.05;67.75;99958.50;7360982;19;20716;-59
2022/11/05 12:16:28;;;;;;;0.00;0.00;;;;;;;18.11;68.00;99968.66;7366628;19;20015;-60
2022/11/05 12:19:11;;;;;;;0.10;0.10;;;;;;;18.29;68.42;99956.84;7363631;19;20018;-60
2022/11/05 12:21:48;;;;;;;0.00;0.00;;;;;;;18.46;66.77;99960.19;7362741;19;20041;-59
2022/11/05 12:24:29;;;;;;;0.10;0.10;;;;;;;18.79;66.78;99960.56;7362813;19;20023;-59